sensor_id;sensor_type;location;lat;lon;timestamp;temperature;humidity
5128;DHT22;2582;48.770;9.190;2022-12-29T00:02:09;9.70;99.90
5128;DHT22;2582;48.770;9.190;2022-12-29T00:04:35;9.70;99.90
5128;DHT22;2582;48.770;9.190;2022-12-29T00:07:00;9.80;99.90
5128;DHT22;2582;48.770;9.190;2022-12-29T00:09:26;9.90;99.90
5128;DHT22;2582;48.770;9.190;2022-12-29T00:11:52;10.00;99.90
5128;DHT22;2582;48.770;9.190;2022-12-29T00:14:18;10.00;99.90
5128;DHT22;2582;48.770;9.190;2022-12-29T00:17:03;10.10;99.90
5128;DHT22;2582;48.770;9.190;2022-12-29T00:19:28;10.10;99.90
5128;DHT22;2582;48.770;9.190;2022-12-29T00:22:13;10.20;99.90
5128;DHT22;2582;48.770;9.190;2022-12-29T00:24:58;10.20;99.90
5128;DHT22;2582;48.770;9.190;2022-12-29T00:27:31;10.20;99.90
5128;DHT22;2582;48.770;9.190;2022-12-29T00:30:20;10.30;99.90
5128;DHT22;2582;48.770;9.190;2022-12-29T00:33:19;10.30;99.90
5128;DHT22;2582;48.770;9.190;2022-12-29T00:36:11;10.30;99.90
5128;DHT22;2582;48.770;9.190;2022-12-29T00:38:41;10.40;99.90
5128;DHT22;2582;48.770;9.190;2022-12-29T00:41:28;10.40;99.90
5128;DHT22;2582;48.770;9.190;2022-12-29T00:44:13;10.40;99.90
5128;DHT22;2582;48.770;9.190;2022-12-29T00:46:41;10.60;99.90
5128;DHT22;2582;48.770;9.190;2022-12-29T00:49:08;10.70;99.90
5128;DHT22;2582;48.770;9.190;2022-12-29T00:51:52;10.80;99.90
5128;DHT22;2582;48.770;9.190;2022-12-29T00:54:19;10.90;99.90
5128;DHT22;2582;48.770;9.190;2022-12-29T00:56:49;11.00;99.90
5128;DHT22;2582;48.770;9.190;2022-12-29T00:59:15;11.10;99.90
5128;DHT22;2582;48.770;9.190;2022-12-29T01:01:41;11.10;99.90
5128;DHT22;2582;48.770;9.190;2022-12-29T01:04:08;11.30;99.90
5128;DHT22;2582;48.770;9.190;2022-12-29T01:06:35;11.30;99.90
5128;DHT22;2582;48.770;9.190;2022-12-29T01:09:00;11.50;99.90
5128;DHT22;2582;48.770;9.190;2022-12-29T01:11:44;11.50;99.90
5128;DHT22;2582;48.770;9.190;2022-12-29T01:14:10;11.40;99.90
5128;DHT22;2582;48.770;9.190;2022-12-29T01:16:35;11.50;99.90
5128;DHT22;2582;48.770;9.190;2022-12-29T01:19:02;11.50;99.90
5128;DHT22;2582;48.770;9.190;2022-12-29T01:21:28;11.50;99.90
5128;DHT22;2582;48.770;9.190;2022-12-29T01:23:53;11.60;99.90
5128;DHT22;2582;48.770;9.190;2022-12-29T01:26:22;11.60;99.90
5128;DHT22;2582;48.770;9.190;2022-12-29T01:28:47;11.60;99.90
5128;DHT22;2582;48.770;9.190;2022-12-29T01:31:14;11.70;99.90
5128;DHT22;2582;48.770;9.190;2022-12-29T01:33:40;11.70;99.90
5128;DHT22;2582;48.770;9.190;2022-12-29T01:36:08;11.70;99.90
5128;DHT22;2582;48.770;9.190;2022-12-29T01:38:36;11.80;99.90
5128;DHT22;2582;48.770;9.190;2022-12-29T01:41:03;11.80;99.90
5128;DHT22;2582;48.770;9.190;2022-12-29T01:43:48;11.80;99.90
5128;DHT22;2582;48.770;9.190;2022-12-29T01:46:36;11.80;99.90
5128;DHT22;2582;48.770;9.190;2022-12-29T01:49:22;11.70;99.90
5128;DHT22;2582;48.770;9.190;2022-12-29T01:51:52;11.60;99.90
5128;DHT22;2582;48.770;9.190;2022-12-29T01:54:30;11.70;99.90
5128;DHT22;2582;48.770;9.190;2022-12-29T01:56:59;11.70;99.90
5128;DHT22;2582;48.770;9.190;2022-12-29T01:59:29;11.80;99.90
5128;DHT22;2582;48.770;9.190;2022-12-29T02:01:56;11.70;99.90
5128;DHT22;2582;48.770;9.190;2022-12-29T02:04:25;11.80;99.90
5128;DHT22;2582;48.770;9.190;2022-12-29T02:06:55;11.70;99.90
5128;DHT22;2582;48.770;9.190;2022-12-29T02:09:22;11.60;99.90
5128;DHT22;2582;48.770;9.190;2022-12-29T02:11:49;11.70;99.90
5128;DHT22;2582;48.770;9.190;2022-12-29T02:14:14;11.50;99.90
5128;DHT22;2582;48.770;9.190;2022-12-29T02:16:58;11.30;99.90
5128;DHT22;2582;48.770;9.190;2022-12-29T02:31:46;11.10;99.90
5128;DHT22;2582;48.770;9.190;2022-12-29T02:37:20;11.30;99.90
5128;DHT22;2582;48.770;9.190;2022-12-29T02:39:50;11.50;99.90
5128;DHT22;2582;48.770;9.190;2022-12-29T02:42:41;11.40;99.90
5128;DHT22;2582;48.770;9.190;2022-12-29T02:48:18;11.40;99.90
5128;DHT22;2582;48.770;9.190;2022-12-29T02:50:57;11.60;99.90
5128;DHT22;2582;48.770;9.190;2022-12-29T02:53:25;11.40;99.90
5128;DHT22;2582;48.770;9.190;2022-12-29T02:56:11;11.40;99.90
5128;DHT22;2582;48.770;9.190;2022-12-29T02:58:37;11.40;99.90
5128;DHT22;2582;48.770;9.190;2022-12-29T03:09:52;11.80;99.90
5128;DHT22;2582;48.770;9.190;2022-12-29T03:12:37;11.90;99.90
5128;DHT22;2582;48.770;9.190;2022-12-29T03:15:40;11.90;99.90
5128;DHT22;2582;48.770;9.190;2022-12-29T03:21:38;11.70;99.90
5128;DHT22;2582;48.770;9.190;2022-12-29T03:24:28;11.70;99.90
5128;DHT22;2582;48.770;9.190;2022-12-29T03:26:58;11.70;99.90
5128;DHT22;2582;48.770;9.190;2022-12-29T03:29:24;11.80;99.90
5128;DHT22;2582;48.770;9.190;2022-12-29T03:31:51;11.90;99.90
5128;DHT22;2582;48.770;9.190;2022-12-29T03:34:20;11.90;99.90
5128;DHT22;2582;48.770;9.190;2022-12-29T03:36:54;11.90;99.90
5128;DHT22;2582;48.770;9.190;2022-12-29T03:39:22;11.90;99.90
5128;DHT22;2582;48.770;9.190;2022-12-29T03:41:51;11.90;99.90
5128;DHT22;2582;48.770;9.190;2022-12-29T03:44:20;11.90;99.90
5128;DHT22;2582;48.770;9.190;2022-12-29T03:46:46;12.10;99.90
5128;DHT22;2582;48.770;9.190;2022-12-29T03:49:11;12.10;99.90
5128;DHT22;2582;48.770;9.190;2022-12-29T03:51:37;12.00;99.90
5128;DHT22;2582;48.770;9.190;2022-12-29T03:54:02;12.10;99.90
5128;DHT22;2582;48.770;9.190;2022-12-29T03:56:28;12.00;99.90
5128;DHT22;2582;48.770;9.190;2022-12-29T03:58:54;12.10;99.90
5128;DHT22;2582;48.770;9.190;2022-12-29T04:01:19;12.10;99.90
5128;DHT22;2582;48.770;9.190;2022-12-29T04:03:45;12.10;99.90
5128;DHT22;2582;48.770;9.190;2022-12-29T04:06:10;12.00;99.90
5128;DHT22;2582;48.770;9.190;2022-12-29T04:08:36;12.00;99.90
5128;DHT22;2582;48.770;9.190;2022-12-29T04:11:01;12.10;99.90
5128;DHT22;2582;48.770;9.190;2022-12-29T04:13:27;12.20;99.90
5128;DHT22;2582;48.770;9.190;2022-12-29T04:15:52;12.20;99.90
5128;DHT22;2582;48.770;9.190;2022-12-29T04:18:18;12.10;99.90
5128;DHT22;2582;48.770;9.190;2022-12-29T04:20:44;12.00;99.90
5128;DHT22;2582;48.770;9.190;2022-12-29T04:23:25;12.00;99.90
5128;DHT22;2582;48.770;9.190;2022-12-29T04:25:51;11.90;99.90
5128;DHT22;2582;48.770;9.190;2022-12-29T04:28:17;11.80;99.90
5128;DHT22;2582;48.770;9.190;2022-12-29T04:30:43;11.80;99.90
5128;DHT22;2582;48.770;9.190;2022-12-29T04:33:09;11.80;99.90
5128;DHT22;2582;48.770;9.190;2022-12-29T04:35:35;11.90;99.90
5128;DHT22;2582;48.770;9.190;2022-12-29T04:38:01;12.00;99.90
5128;DHT22;2582;48.770;9.190;2022-12-29T04:40:26;12.00;99.90
5128;DHT22;2582;48.770;9.190;2022-12-29T04:42:52;11.80;99.90
5128;DHT22;2582;48.770;9.190;2022-12-29T04:45:18;11.80;99.90
5128;DHT22;2582;48.770;9.190;2022-12-29T04:47:43;11.80;99.90
5128;DHT22;2582;48.770;9.190;2022-12-29T04:50:09;11.80;99.90
5128;DHT22;2582;48.770;9.190;2022-12-29T04:52:35;11.90;99.90
5128;DHT22;2582;48.770;9.190;2022-12-29T04:55:00;11.90;99.90
5128;DHT22;2582;48.770;9.190;2022-12-29T04:57:26;11.90;99.90
5128;DHT22;2582;48.770;9.190;2022-12-29T04:59:52;11.90;99.90
5128;DHT22;2582;48.770;9.190;2022-12-29T05:02:17;12.00;99.90
5128;DHT22;2582;48.770;9.190;2022-12-29T05:04:43;12.00;99.90
5128;DHT22;2582;48.770;9.190;2022-12-29T05:07:09;12.00;99.90
5128;DHT22;2582;48.770;9.190;2022-12-29T05:09:34;12.00;99.90
5128;DHT22;2582;48.770;9.190;2022-12-29T05:12:00;12.00;99.90
5128;DHT22;2582;48.770;9.190;2022-12-29T05:14:25;12.00;99.90
5128;DHT22;2582;48.770;9.190;2022-12-29T05:16:51;11.90;99.90
5128;DHT22;2582;48.770;9.190;2022-12-29T05:19:17;12.00;99.90
5128;DHT22;2582;48.770;9.190;2022-12-29T05:21:43;12.00;99.90
5128;DHT22;2582;48.770;9.190;2022-12-29T05:24:09;12.00;99.90
5128;DHT22;2582;48.770;9.190;2022-12-29T05:26:34;11.90;99.90
5128;DHT22;2582;48.770;9.190;2022-12-29T05:29:00;12.00;99.90
5128;DHT22;2582;48.770;9.190;2022-12-29T05:31:26;11.90;99.90
5128;DHT22;2582;48.770;9.190;2022-12-29T05:33:51;12.00;99.90
5128;DHT22;2582;48.770;9.190;2022-12-29T05:36:17;11.90;99.90
5128;DHT22;2582;48.770;9.190;2022-12-29T05:38:43;11.90;99.90
5128;DHT22;2582;48.770;9.190;2022-12-29T05:41:08;11.90;99.90
5128;DHT22;2582;48.770;9.190;2022-12-29T05:43:34;12.00;99.90
5128;DHT22;2582;48.770;9.190;2022-12-29T05:46:00;11.90;99.90
5128;DHT22;2582;48.770;9.190;2022-12-29T05:48:26;12.00;99.90
5128;DHT22;2582;48.770;9.190;2022-12-29T05:50:52;12.00;99.90
5128;DHT22;2582;48.770;9.190;2022-12-29T05:53:17;11.90;99.90
5128;DHT22;2582;48.770;9.190;2022-12-29T05:55:46;11.90;99.90
5128;DHT22;2582;48.770;9.190;2022-12-29T05:58:11;12.00;99.90
5128;DHT22;2582;48.770;9.190;2022-12-29T06:00:37;11.90;99.90
5128;DHT22;2582;48.770;9.190;2022-12-29T06:03:03;12.00;99.90
5128;DHT22;2582;48.770;9.190;2022-12-29T06:05:29;12.10;99.90
5128;DHT22;2582;48.770;9.190;2022-12-29T06:07:55;12.10;99.90
5128;DHT22;2582;48.770;9.190;2022-12-29T06:10:20;12.20;99.90
5128;DHT22;2582;48.770;9.190;2022-12-29T06:12:46;12.20;99.90
5128;DHT22;2582;48.770;9.190;2022-12-29T06:15:12;12.10;99.90
5128;DHT22;2582;48.770;9.190;2022-12-29T06:17:38;12.00;99.90
5128;DHT22;2582;48.770;9.190;2022-12-29T06:20:04;11.90;99.90
5128;DHT22;2582;48.770;9.190;2022-12-29T06:22:30;12.00;99.90
5128;DHT22;2582;48.770;9.190;2022-12-29T06:24:56;12.00;99.90
5128;DHT22;2582;48.770;9.190;2022-12-29T06:27:22;12.00;99.90
5128;DHT22;2582;48.770;9.190;2022-12-29T06:29:48;12.10;99.90
5128;DHT22;2582;48.770;9.190;2022-12-29T06:32:13;12.10;99.90
5128;DHT22;2582;48.770;9.190;2022-12-29T06:34:39;12.00;99.90
5128;DHT22;2582;48.770;9.190;2022-12-29T06:37:04;12.00;99.90
5128;DHT22;2582;48.770;9.190;2022-12-29T06:39:30;12.00;99.90
5128;DHT22;2582;48.770;9.190;2022-12-29T06:41:55;11.90;99.90
5128;DHT22;2582;48.770;9.190;2022-12-29T06:44:21;11.90;99.90
5128;DHT22;2582;48.770;9.190;2022-12-29T06:46:47;11.90;99.90
5128;DHT22;2582;48.770;9.190;2022-12-29T06:49:13;11.80;99.90
5128;DHT22;2582;48.770;9.190;2022-12-29T06:51:39;11.70;99.90
5128;DHT22;2582;48.770;9.190;2022-12-29T06:54:04;11.80;99.90
5128;DHT22;2582;48.770;9.190;2022-12-29T06:56:30;11.80;99.90
5128;DHT22;2582;48.770;9.190;2022-12-29T06:58:56;11.70;99.90
5128;DHT22;2582;48.770;9.190;2022-12-29T07:01:21;11.60;99.90
5128;DHT22;2582;48.770;9.190;2022-12-29T07:03:47;11.60;99.90
5128;DHT22;2582;48.770;9.190;2022-12-29T07:06:13;11.60;99.90
5128;DHT22;2582;48.770;9.190;2022-12-29T07:08:38;11.60;99.90
5128;DHT22;2582;48.770;9.190;2022-12-29T07:11:04;11.60;99.90
5128;DHT22;2582;48.770;9.190;2022-12-29T07:13:30;11.60;99.90
5128;DHT22;2582;48.770;9.190;2022-12-29T07:15:55;11.50;99.90
5128;DHT22;2582;48.770;9.190;2022-12-29T07:18:21;11.60;99.90
5128;DHT22;2582;48.770;9.190;2022-12-29T07:20:47;11.60;99.90
5128;DHT22;2582;48.770;9.190;2022-12-29T07:23:13;11.60;99.90
5128;DHT22;2582;48.770;9.190;2022-12-29T07:25:38;11.50;99.90
5128;DHT22;2582;48.770;9.190;2022-12-29T07:28:06;11.40;99.90
5128;DHT22;2582;48.770;9.190;2022-12-29T07:30:31;11.40;99.90
5128;DHT22;2582;48.770;9.190;2022-12-29T07:32:57;11.30;99.90
5128;DHT22;2582;48.770;9.190;2022-12-29T07:35:22;11.20;99.90
5128;DHT22;2582;48.770;9.190;2022-12-29T07:37:48;11.30;99.90
5128;DHT22;2582;48.770;9.190;2022-12-29T07:40:14;11.30;99.90
5128;DHT22;2582;48.770;9.190;2022-12-29T07:42:39;11.30;99.90
5128;DHT22;2582;48.770;9.190;2022-12-29T07:45:05;11.20;99.90
5128;DHT22;2582;48.770;9.190;2022-12-29T07:47:31;11.20;99.90
5128;DHT22;2582;48.770;9.190;2022-12-29T07:49:57;11.30;99.90
5128;DHT22;2582;48.770;9.190;2022-12-29T07:52:22;11.30;99.90
5128;DHT22;2582;48.770;9.190;2022-12-29T07:54:48;11.30;99.90
5128;DHT22;2582;48.770;9.190;2022-12-29T07:57:13;11.40;99.90
5128;DHT22;2582;48.770;9.190;2022-12-29T07:59:39;11.50;99.90
5128;DHT22;2582;48.770;9.190;2022-12-29T08:02:04;11.60;99.90
5128;DHT22;2582;48.770;9.190;2022-12-29T08:04:30;11.60;99.90
5128;DHT22;2582;48.770;9.190;2022-12-29T08:06:56;11.60;99.90
5128;DHT22;2582;48.770;9.190;2022-12-29T08:09:21;11.60;99.90
5128;DHT22;2582;48.770;9.190;2022-12-29T08:11:47;11.60;99.90
5128;DHT22;2582;48.770;9.190;2022-12-29T08:14:12;11.60;99.90
5128;DHT22;2582;48.770;9.190;2022-12-29T08:16:38;11.70;99.90
5128;DHT22;2582;48.770;9.190;2022-12-29T08:19:03;11.80;99.90
5128;DHT22;2582;48.770;9.190;2022-12-29T08:21:30;11.80;99.90
5128;DHT22;2582;48.770;9.190;2022-12-29T08:23:56;11.90;99.90
5128;DHT22;2582;48.770;9.190;2022-12-29T08:26:22;11.90;99.90
5128;DHT22;2582;48.770;9.190;2022-12-29T08:28:48;12.00;99.90
5128;DHT22;2582;48.770;9.190;2022-12-29T08:31:13;12.00;99.90
5128;DHT22;2582;48.770;9.190;2022-12-29T08:33:39;12.10;99.90
5128;DHT22;2582;48.770;9.190;2022-12-29T08:36:06;12.20;99.90
5128;DHT22;2582;48.770;9.190;2022-12-29T08:38:32;12.20;99.90
5128;DHT22;2582;48.770;9.190;2022-12-29T08:40:58;12.30;99.90
5128;DHT22;2582;48.770;9.190;2022-12-29T08:43:25;12.30;99.90
5128;DHT22;2582;48.770;9.190;2022-12-29T08:45:50;12.40;99.90
5128;DHT22;2582;48.770;9.190;2022-12-29T08:48:16;12.30;99.90
5128;DHT22;2582;48.770;9.190;2022-12-29T08:50:45;12.30;99.90
5128;DHT22;2582;48.770;9.190;2022-12-29T08:53:11;12.30;99.90
5128;DHT22;2582;48.770;9.190;2022-12-29T08:55:37;12.20;99.90
5128;DHT22;2582;48.770;9.190;2022-12-29T08:58:03;12.10;99.90
5128;DHT22;2582;48.770;9.190;2022-12-29T09:00:28;12.20;99.90
5128;DHT22;2582;48.770;9.190;2022-12-29T09:02:54;12.20;99.90
5128;DHT22;2582;48.770;9.190;2022-12-29T09:05:19;12.10;99.90
5128;DHT22;2582;48.770;9.190;2022-12-29T09:07:45;12.20;99.90
5128;DHT22;2582;48.770;9.190;2022-12-29T09:10:11;12.30;99.90
5128;DHT22;2582;48.770;9.190;2022-12-29T09:12:36;12.40;99.90
5128;DHT22;2582;48.770;9.190;2022-12-29T09:15:02;12.60;99.90
5128;DHT22;2582;48.770;9.190;2022-12-29T09:17:28;12.60;99.90
5128;DHT22;2582;48.770;9.190;2022-12-29T09:20:09;12.70;99.90
5128;DHT22;2582;48.770;9.190;2022-12-29T09:22:36;12.80;99.90
5128;DHT22;2582;48.770;9.190;2022-12-29T09:25:01;13.10;99.90
5128;DHT22;2582;48.770;9.190;2022-12-29T09:27:27;13.00;99.90
5128;DHT22;2582;48.770;9.190;2022-12-29T09:29:53;12.90;99.90
5128;DHT22;2582;48.770;9.190;2022-12-29T09:32:18;13.10;99.90
5128;DHT22;2582;48.770;9.190;2022-12-29T09:34:44;13.10;99.90
5128;DHT22;2582;48.770;9.190;2022-12-29T09:37:09;13.20;99.90
5128;DHT22;2582;48.770;9.190;2022-12-29T09:39:35;13.30;99.90
5128;DHT22;2582;48.770;9.190;2022-12-29T09:42:14;13.40;99.90
5128;DHT22;2582;48.770;9.190;2022-12-29T09:47:26;13.60;99.90
5128;DHT22;2582;48.770;9.190;2022-12-29T09:49:58;13.60;99.90
5128;DHT22;2582;48.770;9.190;2022-12-29T09:52:30;13.60;99.90
5128;DHT22;2582;48.770;9.190;2022-12-29T09:55:12;13.60;99.90
5128;DHT22;2582;48.770;9.190;2022-12-29T09:57:58;13.60;99.90
5128;DHT22;2582;48.770;9.190;2022-12-29T10:01:12;13.80;99.90
5128;DHT22;2582;48.770;9.190;2022-12-29T10:03:50;13.80;99.90
5128;DHT22;2582;48.770;9.190;2022-12-29T10:17:59;13.80;99.90
5128;DHT22;2582;48.770;9.190;2022-12-29T10:20:52;13.90;99.90
5128;DHT22;2582;48.770;9.190;2022-12-29T10:26:00;14.00;99.90
5128;DHT22;2582;48.770;9.190;2022-12-29T10:28:40;14.20;99.90
5128;DHT22;2582;48.770;9.190;2022-12-29T10:31:19;14.20;99.90
5128;DHT22;2582;48.770;9.190;2022-12-29T10:33:49;14.20;99.90
5128;DHT22;2582;48.770;9.190;2022-12-29T10:36:30;14.20;99.90
5128;DHT22;2582;48.770;9.190;2022-12-29T10:39:06;14.20;99.90
5128;DHT22;2582;48.770;9.190;2022-12-29T10:41:55;14.30;99.90
5128;DHT22;2582;48.770;9.190;2022-12-29T10:44:29;14.30;99.90
5128;DHT22;2582;48.770;9.190;2022-12-29T10:46:59;14.30;99.90
5128;DHT22;2582;48.770;9.190;2022-12-29T10:49:27;14.40;99.90
5128;DHT22;2582;48.770;9.190;2022-12-29T10:51:58;14.60;99.90
5128;DHT22;2582;48.770;9.190;2022-12-29T10:55:22;14.70;99.90
5128;DHT22;2582;48.770;9.190;2022-12-29T10:57:37;14.80;99.90
5128;DHT22;2582;48.770;9.190;2022-12-29T11:05:52;16.60;99.90
5128;DHT22;2582;48.770;9.190;2022-12-29T11:08:22;16.50;99.90
5128;DHT22;2582;48.770;9.190;2022-12-29T11:11:04;16.40;99.90
5128;DHT22;2582;48.770;9.190;2022-12-29T11:13:32;16.40;99.90
5128;DHT22;2582;48.770;9.190;2022-12-29T11:15:59;15.80;99.90
5128;DHT22;2582;48.770;9.190;2022-12-29T11:18:38;15.50;99.90
5128;DHT22;2582;48.770;9.190;2022-12-29T11:21:23;15.30;99.90
5128;DHT22;2582;48.770;9.190;2022-12-29T11:24:06;15.00;99.90
5128;DHT22;2582;48.770;9.190;2022-12-29T11:26:44;14.80;99.90
5128;DHT22;2582;48.770;9.190;2022-12-29T11:31:53;14.80;99.90
5128;DHT22;2582;48.770;9.190;2022-12-29T11:34:23;14.80;99.90
5128;DHT22;2582;48.770;9.190;2022-12-29T11:36:51;14.70;99.90
5128;DHT22;2582;48.770;9.190;2022-12-29T11:39:34;14.80;99.90
5128;DHT22;2582;48.770;9.190;2022-12-29T11:42:02;14.70;99.90
5128;DHT22;2582;48.770;9.190;2022-12-29T11:44:32;14.60;99.90
5128;DHT22;2582;48.770;9.190;2022-12-29T11:47:00;14.40;99.90
5128;DHT22;2582;48.770;9.190;2022-12-29T11:49:26;14.40;99.90
5128;DHT22;2582;48.770;9.190;2022-12-29T11:51:53;14.70;99.90
5128;DHT22;2582;48.770;9.190;2022-12-29T11:54:27;14.50;99.90
5128;DHT22;2582;48.770;9.190;2022-12-29T11:56:54;14.40;99.90
5128;DHT22;2582;48.770;9.190;2022-12-29T12:01:57;14.30;99.90
5128;DHT22;2582;48.770;9.190;2022-12-29T12:04:27;14.40;99.90
5128;DHT22;2582;48.770;9.190;2022-12-29T12:09:26;14.40;99.90
5128;DHT22;2582;48.770;9.190;2022-12-29T12:11:54;14.30;99.90
5128;DHT22;2582;48.770;9.190;2022-12-29T12:14:27;14.30;99.90
5128;DHT22;2582;48.770;9.190;2022-12-29T12:16:57;14.00;99.90
5128;DHT22;2582;48.770;9.190;2022-12-29T12:19:34;13.90;99.90
5128;DHT22;2582;48.770;9.190;2022-12-29T12:22:15;13.80;99.90
5128;DHT22;2582;48.770;9.190;2022-12-29T12:25:21;13.90;99.90
5128;DHT22;2582;48.770;9.190;2022-12-29T12:28:02;13.70;99.90
5128;DHT22;2582;48.770;9.190;2022-12-29T12:30:37;13.80;99.90
5128;DHT22;2582;48.770;9.190;2022-12-29T12:33:15;14.00;99.90
5128;DHT22;2582;48.770;9.190;2022-12-29T12:41:05;14.30;99.90
5128;DHT22;2582;48.770;9.190;2022-12-29T12:58:16;14.00;99.90
5128;DHT22;2582;48.770;9.190;2022-12-29T13:01:15;14.00;99.90
5128;DHT22;2582;48.770;9.190;2022-12-29T13:17:12;14.20;99.90
5128;DHT22;2582;48.770;9.190;2022-12-29T13:19:45;14.20;99.90
5128;DHT22;2582;48.770;9.190;2022-12-29T13:22:23;14.20;99.90
5128;DHT22;2582;48.770;9.190;2022-12-29T13:27:45;14.20;99.90
5128;DHT22;2582;48.770;9.190;2022-12-29T13:30:20;14.20;99.90
5128;DHT22;2582;48.770;9.190;2022-12-29T13:38:32;14.10;99.90
5128;DHT22;2582;48.770;9.190;2022-12-29T13:41:04;14.20;99.90
5128;DHT22;2582;48.770;9.190;2022-12-29T13:43:34;14.20;99.90
5128;DHT22;2582;48.770;9.190;2022-12-29T13:46:16;14.10;99.90
5128;DHT22;2582;48.770;9.190;2022-12-29T13:49:21;14.10;99.90
5128;DHT22;2582;48.770;9.190;2022-12-29T13:51:49;14.20;99.90
5128;DHT22;2582;48.770;9.190;2022-12-29T13:54:31;14.10;99.90
5128;DHT22;2582;48.770;9.190;2022-12-29T14:07:44;13.70;99.90
5128;DHT22;2582;48.770;9.190;2022-12-29T14:10:47;13.80;99.90
5128;DHT22;2582;48.770;9.190;2022-12-29T14:15:46;14.00;99.90
5128;DHT22;2582;48.770;9.190;2022-12-29T14:18:27;14.00;99.90
5128;DHT22;2582;48.770;9.190;2022-12-29T14:20:57;14.00;99.90
5128;DHT22;2582;48.770;9.190;2022-12-29T14:23:37;13.90;99.90
5128;DHT22;2582;48.770;9.190;2022-12-29T14:28:32;13.80;99.90
5128;DHT22;2582;48.770;9.190;2022-12-29T14:31:01;14.00;99.90
5128;DHT22;2582;48.770;9.190;2022-12-29T14:33:29;13.90;99.90
5128;DHT22;2582;48.770;9.190;2022-12-29T14:35:56;13.70;99.90
5128;DHT22;2582;48.770;9.190;2022-12-29T14:38:26;13.80;99.90
5128;DHT22;2582;48.770;9.190;2022-12-29T14:40:53;13.70;99.90
5128;DHT22;2582;48.770;9.190;2022-12-29T14:43:38;13.70;99.90
5128;DHT22;2582;48.770;9.190;2022-12-29T14:46:08;13.40;99.90
5128;DHT22;2582;48.770;9.190;2022-12-29T14:48:40;13.40;99.90
5128;DHT22;2582;48.770;9.190;2022-12-29T14:51:24;13.40;99.90
5128;DHT22;2582;48.770;9.190;2022-12-29T14:53:51;13.50;99.90
5128;DHT22;2582;48.770;9.190;2022-12-29T14:56:19;13.60;99.90
5128;DHT22;2582;48.770;9.190;2022-12-29T14:58:54;13.60;99.90
5128;DHT22;2582;48.770;9.190;2022-12-29T15:03:53;13.90;99.90
5128;DHT22;2582;48.770;9.190;2022-12-29T15:06:28;13.80;99.90
5128;DHT22;2582;48.770;9.190;2022-12-29T15:11:41;13.50;99.90
5128;DHT22;2582;48.770;9.190;2022-12-29T15:14:37;13.50;99.90
5128;DHT22;2582;48.770;9.190;2022-12-29T15:19:51;13.40;99.90
5128;DHT22;2582;48.770;9.190;2022-12-29T15:22:16;13.40;99.90
5128;DHT22;2582;48.770;9.190;2022-12-29T15:24:42;13.30;99.90
5128;DHT22;2582;48.770;9.190;2022-12-29T15:27:13;13.10;99.90
5128;DHT22;2582;48.770;9.190;2022-12-29T15:29:42;13.00;99.90
5128;DHT22;2582;48.770;9.190;2022-12-29T15:32:28;13.00;99.90
5128;DHT22;2582;48.770;9.190;2022-12-29T15:34:58;13.00;99.90
5128;DHT22;2582;48.770;9.190;2022-12-29T15:37:26;13.00;99.90
5128;DHT22;2582;48.770;9.190;2022-12-29T15:39:54;13.00;99.90
5128;DHT22;2582;48.770;9.190;2022-12-29T15:45:11;13.10;99.90
5128;DHT22;2582;48.770;9.190;2022-12-29T15:47:38;13.10;99.90
5128;DHT22;2582;48.770;9.190;2022-12-29T15:50:23;13.10;99.90
5128;DHT22;2582;48.770;9.190;2022-12-29T15:52:50;13.00;99.90
5128;DHT22;2582;48.770;9.190;2022-12-29T15:55:32;13.00;99.90
5128;DHT22;2582;48.770;9.190;2022-12-29T15:57:59;13.00;99.90
5128;DHT22;2582;48.770;9.190;2022-12-29T16:00:28;13.10;99.90
5128;DHT22;2582;48.770;9.190;2022-12-29T16:02:55;13.10;99.90
5128;DHT22;2582;48.770;9.190;2022-12-29T16:05:22;13.00;99.90
5128;DHT22;2582;48.770;9.190;2022-12-29T16:07:56;12.80;99.90
5128;DHT22;2582;48.770;9.190;2022-12-29T16:10:29;12.50;99.90
5128;DHT22;2582;48.770;9.190;2022-12-29T16:16:02;12.10;99.90
5128;DHT22;2582;48.770;9.190;2022-12-29T16:18:32;12.10;99.90
5128;DHT22;2582;48.770;9.190;2022-12-29T16:20:59;12.10;99.90
5128;DHT22;2582;48.770;9.190;2022-12-29T16:23:27;12.00;99.90
5128;DHT22;2582;48.770;9.190;2022-12-29T16:25:55;12.10;99.90
5128;DHT22;2582;48.770;9.190;2022-12-29T16:28:25;12.10;99.90
5128;DHT22;2582;48.770;9.190;2022-12-29T16:31:03;12.10;99.90
5128;DHT22;2582;48.770;9.190;2022-12-29T16:36:29;12.20;99.90
5128;DHT22;2582;48.770;9.190;2022-12-29T16:39:16;12.50;99.90
5128;DHT22;2582;48.770;9.190;2022-12-29T16:41:44;12.60;99.90
5128;DHT22;2582;48.770;9.190;2022-12-29T16:44:28;12.60;99.90
5128;DHT22;2582;48.770;9.190;2022-12-29T16:49:24;12.80;99.90
5128;DHT22;2582;48.770;9.190;2022-12-29T16:51:51;12.90;99.90
5128;DHT22;2582;48.770;9.190;2022-12-29T16:54:33;12.80;99.90
5128;DHT22;2582;48.770;9.190;2022-12-29T16:57:00;12.80;99.90
5128;DHT22;2582;48.770;9.190;2022-12-29T16:59:38;12.50;99.90
5128;DHT22;2582;48.770;9.190;2022-12-29T17:02:14;12.50;99.90
5128;DHT22;2582;48.770;9.190;2022-12-29T17:04:40;12.40;99.90
5128;DHT22;2582;48.770;9.190;2022-12-29T17:07:16;12.30;99.90
5128;DHT22;2582;48.770;9.190;2022-12-29T17:09:42;12.20;99.90
5128;DHT22;2582;48.770;9.190;2022-12-29T17:12:10;12.20;99.90
5128;DHT22;2582;48.770;9.190;2022-12-29T17:14:42;12.20;99.90
5128;DHT22;2582;48.770;9.190;2022-12-29T17:17:35;12.30;99.90
5128;DHT22;2582;48.770;9.190;2022-12-29T17:20:14;12.20;99.90
5128;DHT22;2582;48.770;9.190;2022-12-29T17:22:39;12.20;99.90
5128;DHT22;2582;48.770;9.190;2022-12-29T17:25:05;12.30;99.90
5128;DHT22;2582;48.770;9.190;2022-12-29T17:30:13;12.20;99.90
5128;DHT22;2582;48.770;9.190;2022-12-29T17:32:43;12.20;99.90
5128;DHT22;2582;48.770;9.190;2022-12-29T17:35:15;12.10;99.90
5128;DHT22;2582;48.770;9.190;2022-12-29T17:37:42;12.10;99.90
5128;DHT22;2582;48.770;9.190;2022-12-29T17:40:15;12.00;99.90
5128;DHT22;2582;48.770;9.190;2022-12-29T17:42:46;11.80;99.90
5128;DHT22;2582;48.770;9.190;2022-12-29T17:45:20;11.70;99.90
5128;DHT22;2582;48.770;9.190;2022-12-29T17:47:47;11.80;99.90
5128;DHT22;2582;48.770;9.190;2022-12-29T17:50:18;11.60;99.90
5128;DHT22;2582;48.770;9.190;2022-12-29T17:52:54;11.70;99.90
5128;DHT22;2582;48.770;9.190;2022-12-29T17:55:22;11.70;99.90
5128;DHT22;2582;48.770;9.190;2022-12-29T17:57:48;11.50;99.90
5128;DHT22;2582;48.770;9.190;2022-12-29T18:00:22;11.50;99.90
5128;DHT22;2582;48.770;9.190;2022-12-29T18:02:49;11.60;99.90
5128;DHT22;2582;48.770;9.190;2022-12-29T18:05:19;11.60;99.90
5128;DHT22;2582;48.770;9.190;2022-12-29T18:07:44;11.70;99.90
5128;DHT22;2582;48.770;9.190;2022-12-29T18:10:10;11.70;99.90
5128;DHT22;2582;48.770;9.190;2022-12-29T18:12:41;11.60;99.90
5128;DHT22;2582;48.770;9.190;2022-12-29T18:15:36;11.70;99.90
5128;DHT22;2582;48.770;9.190;2022-12-29T18:18:13;11.60;99.90
5128;DHT22;2582;48.770;9.190;2022-12-29T18:20:40;11.70;99.90
5128;DHT22;2582;48.770;9.190;2022-12-29T18:26:05;11.70;99.90
5128;DHT22;2582;48.770;9.190;2022-12-29T18:28:32;11.70;99.90
5128;DHT22;2582;48.770;9.190;2022-12-29T18:30:59;11.20;99.90
5128;DHT22;2582;48.770;9.190;2022-12-29T18:33:26;10.90;99.90
5128;DHT22;2582;48.770;9.190;2022-12-29T18:36:00;10.90;99.90
5128;DHT22;2582;48.770;9.190;2022-12-29T18:38:27;11.00;99.90
5128;DHT22;2582;48.770;9.190;2022-12-29T18:40:53;11.10;99.90
5128;DHT22;2582;48.770;9.190;2022-12-29T18:43:19;11.30;99.90
5128;DHT22;2582;48.770;9.190;2022-12-29T18:45:46;11.50;99.90
5128;DHT22;2582;48.770;9.190;2022-12-29T18:48:12;11.60;99.90